Time;durP1;ratioP1;P1;durP2;ratioP2;P2;SDS_P1;SDS_P2;PMS_P1;PMS_P2;Temp;Humidity;BMP_temperature;BMP_pressure;BME280_temperature;BME280_humidity;BME280_pressure;Samples;Min_cycle;Max_cycle;Signal;HPM_P1;HPM_P2
2023/10/04 00:00:16;;;;;;;6.53;2.10;;;;;;;11.92;100.00;102394.78;5042265;28;20546;-74
2023/10/04 00:02:44;;;;;;;10.05;2.60;;;;;;;11.90;100.00;102402.19;5048039;28;20033;-75
2023/10/04 00:05:11;;;;;;;6.15;2.80;;;;;;;11.92;100.00;102399.38;5035505;28;20037;-76
2023/10/04 00:07:37;;;;;;;10.15;3.30;;;;;;;11.94;100.00;102392.88;5027665;28;20037;-78
2023/10/04 00:10:04;;;;;;;10.88;2.92;;;;;;;11.95;100.00;102404.66;5027404;28;20030;-76
2023/10/04 00:12:30;;;;;;;9.40;2.78;;;;;;;11.93;100.00;102403.84;5027311;28;20048;-76
2023/10/04 00:14:56;;;;;;;8.50;2.63;;;;;;;11.92;100.00;102405.69;5026310;28;20040;-77
2023/10/04 00:17:22;;;;;;;11.40;2.90;;;;;;;11.92;100.00;102411.16;5041224;28;20087;-78
2023/10/04 00:19:47;;;;;;;10.48;2.45;;;;;;;11.92;100.00;102413.88;5047877;28;20037;-75
2023/10/04 00:22:13;;;;;;;6.45;2.60;;;;;;;11.94;100.00;102411.97;5046716;28;20033;-77
2023/10/04 00:24:38;;;;;;;8.15;2.50;;;;;;;11.96;100.00;102407.31;5027036;28;20048;-76
2023/10/04 00:27:04;;;;;;;10.35;2.13;;;;;;;11.97;100.00;102405.47;5027002;28;20037;-76
2023/10/04 00:29:30;;;;;;;6.47;2.97;;;;;;;11.96;100.00;102407.31;5027576;28;20433;-77
2023/10/04 00:31:56;;;;;;;12.25;2.13;;;;;;;11.95;100.00;102400.09;5026843;28;20077;-77
2023/10/04 00:34:22;;;;;;;16.30;2.72;;;;;;;11.95;100.00;102399.22;5026310;28;20029;-77
2023/10/04 00:36:48;;;;;;;8.60;2.88;;;;;;;11.93;100.00;102402.00;5042175;28;20384;-76
2023/10/04 00:39:13;;;;;;;9.43;2.80;;;;;;;11.94;100.00;102406.53;5046349;28;20037;-72
2023/10/04 00:41:40;;;;;;;10.85;2.70;;;;;;;11.92;100.00;102400.25;5030559;28;20125;-75
2023/10/04 00:44:07;;;;;;;8.75;3.13;;;;;;;11.91;100.00;102398.50;5027579;28;20061;-75
2023/10/04 00:46:35;;;;;;;11.35;2.33;;;;;;;11.93;100.00;102403.84;5038036;28;20334;-77
2023/10/04 00:49:02;;;;;;;7.13;2.35;;;;;;;11.90;100.00;102399.47;5027653;28;20508;-76
2023/10/04 00:51:35;;;;;;;10.57;2.35;;;;;;;11.88;100.00;102404.09;5041077;28;20110;-74
2023/10/04 00:54:07;;;;;;;6.80;2.45;;;;;;;11.88;100.00;102412.28;5046977;28;20037;-75
2023/10/04 00:56:36;;;;;;;7.28;2.17;;;;;;;11.90;100.00;102424.00;5029629;28;20071;-74
2023/10/04 00:59:05;;;;;;;9.55;2.80;;;;;;;11.92;100.00;102422.06;5030107;28;20469;-72
2023/10/04 01:01:31;;;;;;;6.90;2.67;;;;;;;11.94;100.00;102425.63;5034428;28;20065;-74
2023/10/04 01:04:00;;;;;;;8.45;2.78;;;;;;;11.94;100.00;102425.63;5030178;28;20413;-75
2023/10/04 01:06:26;;;;;;;8.10;2.85;;;;;;;11.96;100.00;102429.13;5030002;28;20021;-74
2023/10/04 01:08:51;;;;;;;10.00;2.83;;;;;;;11.95;100.00;102431.94;5029643;28;20474;-74
2023/10/04 01:11:17;;;;;;;13.15;2.63;;;;;;;11.92;100.00;102424.78;5030285;28;20053;-74
2023/10/04 01:13:42;;;;;;;9.25;2.42;;;;;;;11.88;100.00;102420.47;5039534;28;20040;-76
2023/10/04 01:16:09;;;;;;;6.00;2.45;;;;;;;11.85;100.00;102417.91;5044163;28;20090;-76
2023/10/04 01:18:38;;;;;;;12.90;3.30;;;;;;;11.85;100.00;102434.28;5046372;28;20041;-74
2023/10/04 01:21:03;;;;;;;10.55;2.50;;;;;;;11.84;100.00;102432.47;5029755;28;20028;-76
2023/10/04 01:23:29;;;;;;;10.27;3.05;;;;;;;11.84;100.00;102437.06;5030518;28;20059;-74
2023/10/04 01:25:54;;;;;;;8.95;2.78;;;;;;;11.82;100.00;102438.97;5045146;28;20114;-76
2023/10/04 01:28:28;;;;;;;12.70;3.17;;;;;;;11.83;100.00;102446.22;5050444;28;20037;-73
2023/10/04 01:30:56;;;;;;;9.77;2.88;;;;;;;11.80;100.00;102444.50;5035240;28;20080;-77
2023/10/04 01:33:21;;;;;;;9.40;2.63;;;;;;;11.79;100.00;102437.25;5030177;28;20852;-74
2023/10/04 01:35:53;;;;;;;12.10;2.97;;;;;;;11.81;100.00;102440.81;5030693;28;20030;-71
2023/10/04 01:38:24;;;;;;;11.25;2.85;;;;;;;11.82;100.00;102444.41;5030427;28;20164;-75
2023/10/04 01:40:51;;;;;;;14.20;3.00;;;;;;;11.78;100.00;102432.78;5029294;28;20756;-75
2023/10/04 01:43:16;;;;;;;14.38;2.88;;;;;;;11.80;100.00;102433.59;5029616;28;20046;-75
2023/10/04 01:45:50;;;;;;;9.23;3.60;;;;;;;11.80;100.00;102441.78;5031041;28;20061;-74
2023/10/04 01:48:17;;;;;;;7.60;2.40;;;;;;;11.80;100.00;102447.25;5029345;28;20125;-76
2023/10/04 01:50:44;;;;;;;9.40;3.22;;;;;;;11.80;100.00;102443.59;5031173;28;20468;-77
2023/10/04 01:53:10;;;;;;;14.15;2.60;;;;;;;11.80;100.00;102449.06;5048041;28;20037;-76
2023/10/04 01:55:36;;;;;;;9.35;3.05;;;;;;;11.82;100.00;102447.16;5050275;28;20503;-72
2023/10/04 01:58:01;;;;;;;9.77;3.60;;;;;;;11.83;100.00;102441.63;5048637;28;20043;-73
2023/10/04 02:00:28;;;;;;;6.38;2.78;;;;;;;11.83;100.00;102438.91;5043466;28;20025;-76
2023/10/04 02:02:54;;;;;;;14.10;2.97;;;;;;;11.85;100.00;102444.31;5049652;28;20033;-74
2023/10/04 02:05:28;;;;;;;10.40;3.15;;;;;;;11.85;100.00;102442.47;5048773;28;20025;-75
2023/10/04 02:07:54;;;;;;;6.28;2.65;;;;;;;11.85;100.00;102445.19;5035131;28;20099;-76
2023/10/04 02:10:20;;;;;;;10.13;3.53;;;;;;;11.83;100.00;102438.03;5028711;28;20053;-76
2023/10/04 02:12:46;;;;;;;8.20;2.88;;;;;;;11.82;100.00;102444.41;5029041;28;20111;-74
2023/10/04 02:15:15;;;;;;;7.95;2.70;;;;;;;11.81;100.00;102443.53;5036282;28;20092;-76
2023/10/04 02:17:42;;;;;;;13.23;2.85;;;;;;;11.79;100.00;102444.56;5032556;28;20041;-75
2023/10/04 02:20:13;;;;;;;8.82;3.10;;;;;;;11.79;100.00;102439.13;5028782;28;20110;-75
2023/10/04 02:22:38;;;;;;;9.65;2.97;;;;;;;11.80;100.00;102441.78;5029877;28;20045;-78
2023/10/04 02:25:06;;;;;;;13.82;2.95;;;;;;;11.80;100.00;102439.06;5023582;28;20044;-74
2023/10/04 02:27:32;;;;;;;5.82;2.53;;;;;;;11.81;100.00;102437.22;5044472;28;20051;-75
2023/10/04 02:29:58;;;;;;;8.02;3.22;;;;;;;11.80;100.00;102429.97;5035448;28;20657;-77
2023/10/04 02:32:25;;;;;;;6.22;2.50;;;;;;;11.81;100.00;102423.56;5027741;28;20029;-75
2023/10/04 02:34:52;;;;;;;9.02;3.10;;;;;;;11.81;100.00;102429.91;5011994;28;20515;-77
2023/10/04 02:37:19;;;;;;;14.30;3.60;;;;;;;11.81;100.00;102431.75;5028262;28;20037;-74
2023/10/04 02:39:44;;;;;;;8.52;3.08;;;;;;;11.81;100.00;102431.75;5028644;28;20501;-75
2023/10/04 02:42:10;;;;;;;10.52;3.50;;;;;;;11.83;100.00;102440.75;5029027;28;20056;-76
2023/10/04 02:44:42;;;;;;;11.30;2.95;;;;;;;11.82;100.00;102438.97;5028258;28;20534;-73
2023/10/04 02:47:07;;;;;;;9.43;3.05;;;;;;;11.81;100.00;102442.66;5044222;28;20076;-76
2023/10/04 02:49:37;;;;;;;9.18;3.10;;;;;;;11.80;100.00;102440.88;5011839;28;20489;-77
2023/10/04 02:52:06;;;;;;;10.90;3.13;;;;;;;11.77;100.00;102441.94;5027698;28;20033;-75
2023/10/04 02:54:32;;;;;;;10.98;3.40;;;;;;;11.76;100.00;102448.34;5027709;28;20040;-77
2023/10/04 02:57:00;;;;;;;9.30;2.97;;;;;;;11.77;100.00;102444.66;5027699;28;20033;-72
2023/10/04 02:59:26;;;;;;;20.80;3.22;;;;;;;11.76;100.00;102445.63;5027866;28;20037;-77
2023/10/04 03:01:52;;;;;;;8.80;3.03;;;;;;;11.77;100.00;102450.13;5027465;28;20041;-74
2023/10/04 03:04:19;;;;;;;10.90;3.15;;;;;;;11.75;100.00;102446.59;5028061;28;20488;-76
2023/10/04 03:06:46;;;;;;;9.45;3.00;;;;;;;11.77;100.00;102446.50;5029495;28;20454;-77
2023/10/04 03:09:12;;;;;;;15.15;3.10;;;;;;;11.73;100.00;102448.50;5011072;28;20035;-75
2023/10/04 03:11:41;;;;;;;7.72;2.70;;;;;;;11.73;100.00;102449.38;5027183;28;20092;-77
2023/10/04 03:14:11;;;;;;;9.93;3.22;;;;;;;11.71;100.00;102461.34;5027634;28;20025;-74
2023/10/04 03:16:36;;;;;;;11.25;2.83;;;;;;;11.68;100.00;102462.38;5030990;28;20510;-75
2023/10/04 03:19:03;;;;;;;11.00;3.25;;;;;;;11.65;100.00;102472.53;5030027;28;20056;-75
2023/10/04 03:21:33;;;;;;;11.07;2.75;;;;;;;11.61;100.00;102476.38;5027435;28;20052;-77
2023/10/04 03:24:06;;;;;;;13.63;3.25;;;;;;;11.55;100.00;102474.84;5029202;28;20032;-76
2023/10/04 03:26:32;;;;;;;19.38;3.50;;;;;;;11.53;100.00;102473.19;5026700;28;20033;-76
2023/10/04 03:28:58;;;;;;;9.30;3.03;;;;;;;11.47;100.00;102469.81;5027380;28;20471;-79
2023/10/04 03:31:28;;;;;;;8.60;2.70;;;;;;;11.42;100.00;102471.88;5027348;28;20063;-74
2023/10/04 03:33:56;;;;;;;13.27;3.05;;;;;;;11.39;100.00;102476.59;5027275;28;20793;-77
2023/10/04 03:36:25;;;;;;;11.20;4.85;;;;;;;11.32;100.00;102462.38;5045464;28;20029;-77
2023/10/04 03:38:58;;;;;;;12.57;3.10;;;;;;;11.33;100.00;102472.34;5043683;28;20557;-75
2023/10/04 03:41:23;;;;;;;9.95;3.17;;;;;;;11.32;100.00;102472.41;5010513;28;20037;-75
2023/10/04 03:43:54;;;;;;;9.40;3.25;;;;;;;11.27;100.00;102464.44;5026415;28;20083;-75
2023/10/04 03:46:20;;;;;;;9.82;3.15;;;;;;;11.23;100.00;102462.84;5010095;28;20033;-75
2023/10/04 03:49:02;;;;;;;10.55;3.00;;;;;;;11.21;100.00;102457.47;5027123;28;20030;-76
2023/10/04 03:51:29;;;;;;;10.20;2.80;;;;;;;11.14;100.00;102463.28;5027785;28;20034;-75
2023/10/04 03:53:57;;;;;;;23.30;3.83;;;;;;;11.10;100.00;102465.28;5026637;28;20065;-75
2023/10/04 03:56:25;;;;;;;11.48;2.95;;;;;;;11.07;100.00;102456.38;5010378;28;20040;-74
2023/10/04 03:58:51;;;;;;;10.18;3.20;;;;;;;11.03;100.00;102450.19;5027973;28;20477;-75
2023/10/04 04:01:17;;;;;;;8.70;3.10;;;;;;;11.01;100.00;102446.69;5027058;28;20048;-72
2023/10/04 04:03:44;;;;;;;11.15;3.58;;;;;;;10.98;100.00;102454.97;5026940;28;20116;-77
2023/10/04 04:06:11;;;;;;;14.25;3.58;;;;;;;10.96;100.00;102454.19;5027973;28;20476;-78
2023/10/04 04:08:37;;;;;;;6.85;2.90;;;;;;;10.95;100.00;102457.84;5025809;28;20038;-75
2023/10/04 04:11:05;;;;;;;10.02;3.30;;;;;;;10.92;100.00;102468.91;5027691;28;20431;-75
2023/10/04 04:13:30;;;;;;;8.60;3.75;;;;;;;10.90;100.00;102465.34;5027478;28;20041;-76
2023/10/04 04:15:56;;;;;;;9.23;2.95;;;;;;;10.87;100.00;102460.97;5028406;28;20132;-75
2023/10/04 04:18:21;;;;;;;6.35;3.30;;;;;;;10.84;100.00;102452.03;5025856;28;20037;-75
2023/10/04 04:20:51;;;;;;;7.88;2.70;;;;;;;10.78;100.00;102453.22;5026651;28;20120;-76
2023/10/04 04:23:16;;;;;;;9.45;4.10;;;;;;;10.75;100.00;102461.53;5026082;28;20443;-71
2023/10/04 04:25:45;;;;;;;13.85;3.63;;;;;;;10.73;100.00;102464.34;5010733;28;20034;-76
2023/10/04 04:28:15;;;;;;;9.52;3.08;;;;;;;10.71;100.00;102458.06;5025975;28;20032;-75
2023/10/04 04:30:42;;;;;;;10.52;3.15;;;;;;;10.69;100.00;102461.81;5028199;28;20037;-75
2023/10/04 04:33:07;;;;;;;19.77;3.53;;;;;;;10.68;100.00;102454.63;5025860;28;20095;-75
2023/10/04 04:38:16;;;;;;;8.77;2.72;;;;;;;10.65;100.00;102452.03;5025926;28;20033;-73
2023/10/04 04:40:50;;;;;;;14.27;3.75;;;;;;;10.62;100.00;102450.31;5025305;28;20045;-74
2023/10/04 04:45:58;;;;;;;8.60;3.50;;;;;;;10.59;100.00;102453.22;5025784;28;20543;-75
2023/10/04 04:48:37;;;;;;;8.82;3.13;;;;;;;10.56;100.00;102445.19;5025179;28;20047;-75
2023/10/04 04:53:43;;;;;;;8.18;2.75;;;;;;;10.47;100.00;102453.78;5044577;28;20807;-75
2023/10/04 04:56:14;;;;;;;10.10;3.17;;;;;;;10.44;100.00;102445.75;5039975;28;20102;-75
2023/10/04 04:58:41;;;;;;;10.88;3.80;;;;;;;10.38;100.00;102449.63;5024752;28;20041;-75
2023/10/04 05:01:13;;;;;;;8.73;2.95;;;;;;;10.35;100.00;102447.06;5013011;28;20033;-74
2023/10/04 05:03:44;;;;;;;10.45;3.25;;;;;;;10.29;100.00;102446.44;5024109;28;20022;-74
2023/10/04 05:06:13;;;;;;;14.93;3.85;;;;;;;10.28;100.00;102455.56;5025928;28;20033;-75
2023/10/04 05:08:40;;;;;;;11.73;3.40;;;;;;;10.26;100.00;102460.19;5024438;28;20032;-74
2023/10/04 05:11:06;;;;;;;8.55;3.05;;;;;;;10.27;100.00;102470.13;5025637;28;20103;-74
2023/10/04 05:13:31;;;;;;;11.68;3.47;;;;;;;10.27;100.00;102467.41;5026254;28;20111;-76
2023/10/04 05:15:57;;;;;;;14.25;4.22;;;;;;;10.28;100.00;102471.91;5026903;28;20393;-78
2023/10/04 05:18:22;;;;;;;14.85;3.53;;;;;;;10.29;100.00;102489.97;5024793;28;20432;-77
2023/10/04 05:20:53;;;;;;;9.60;4.22;;;;;;;10.26;100.00;102493.72;5026506;28;20116;-75
2023/10/04 05:23:22;;;;;;;16.00;3.70;;;;;;;10.27;100.00;102495.50;5026126;28;20033;-77
2023/10/04 05:25:49;;;;;;;12.00;3.50;;;;;;;10.27;100.00;102497.34;5026385;28;20083;-76
2023/10/04 05:28:14;;;;;;;9.30;2.90;;;;;;;10.25;100.00;102505.53;5011833;28;20037;-75
2023/10/04 05:30:42;;;;;;;14.07;5.20;;;;;;;10.23;100.00;102491.09;5016636;28;20486;-74
2023/10/04 05:33:08;;;;;;;14.20;4.07;;;;;;;10.22;100.00;102498.38;5037510;28;20537;-80
2023/10/04 05:35:35;;;;;;;4.55;2.70;;;;;;;10.21;100.00;102493.00;5025335;28;20160;-74
2023/10/04 05:38:07;;;;;;;12.82;3.38;;;;;;;10.19;100.00;102501.22;5026583;28;20124;-76
2023/10/04 05:40:36;;;;;;;17.63;4.20;;;;;;;10.19;100.00;102503.06;5041682;28;20094;-78
2023/10/04 05:43:05;;;;;;;12.45;3.03;;;;;;;10.16;100.00;102501.34;5035531;28;20037;-75
2023/10/04 05:45:32;;;;;;;12.02;3.20;;;;;;;10.13;100.00;102500.63;5029128;28;20120;-77
2023/10/04 05:47:59;;;;;;;14.10;3.60;;;;;;;10.14;100.00;102507.84;5029185;28;20121;-75
2023/10/04 05:50:25;;;;;;;10.98;3.40;;;;;;;10.13;100.00;102511.50;5030068;28;20029;-77
2023/10/04 05:52:52;;;;;;;11.27;3.60;;;;;;;10.15;100.00;102517.75;5029595;28;20602;-74
2023/10/04 05:55:18;;;;;;;9.98;3.33;;;;;;;10.12;100.00;102516.06;5038621;28;20041;-75
2023/10/04 05:57:47;;;;;;;12.27;3.30;;;;;;;10.13;100.00;102520.56;5030685;28;20061;-75
2023/10/04 06:00:28;;;;;;;12.23;3.40;;;;;;;10.13;100.00;102520.56;5030436;28;20389;-75
2023/10/04 06:03:04;;;;;;;17.75;4.18;;;;;;;10.13;100.00;102527.81;5029939;28;20033;-75
2023/10/04 06:05:31;;;;;;;9.13;3.25;;;;;;;10.11;100.00;102524.28;5030063;28;20120;-76
2023/10/04 06:07:57;;;;;;;9.45;3.58;;;;;;;10.15;100.00;102526.78;5029409;28;20037;-77
2023/10/04 06:10:27;;;;;;;13.68;3.50;;;;;;;10.16;100.00;102528.56;5028445;28;20576;-77
2023/10/04 06:12:56;;;;;;;14.13;3.58;;;;;;;10.17;100.00;102524.91;5049644;28;20043;-75
2023/10/04 06:15:24;;;;;;;10.15;3.38;;;;;;;10.18;100.00;102526.66;5022765;28;20029;-77
2023/10/04 06:17:50;;;;;;;14.73;4.05;;;;;;;10.20;100.00;102532.03;5026344;28;20378;-77
2023/10/04 06:20:23;;;;;;;14.20;4.72;;;;;;;10.22;100.00;102535.59;5029353;28;20112;-76
2023/10/04 06:22:50;;;;;;;10.60;3.88;;;;;;;10.27;100.00;102538.13;5030225;28;20033;-75
2023/10/04 06:25:17;;;;;;;19.27;3.88;;;;;;;10.29;100.00;102538.94;5036535;28;20045;-76
2023/10/04 06:27:42;;;;;;;9.95;3.00;;;;;;;10.32;100.00;102533.38;5050615;28;20127;-75
2023/10/04 06:30:08;;;;;;;9.68;4.07;;;;;;;10.35;100.00;102541.38;5042128;28;20595;-75
2023/10/04 06:32:37;;;;;;;14.68;3.35;;;;;;;10.37;100.00;102539.50;5030195;28;20037;-76
2023/10/04 06:35:03;;;;;;;14.57;3.25;;;;;;;10.40;100.00;102545.69;5030087;28;20013;-77
2023/10/04 06:37:29;;;;;;;10.80;3.42;;;;;;;10.45;100.00;102548.22;5029994;28;20434;-77
2023/10/04 06:39:55;;;;;;;12.82;3.42;;;;;;;10.48;100.00;102548.94;5030736;28;20028;-76
2023/10/04 06:42:20;;;;;;;14.63;3.60;;;;;;;10.51;100.00;102550.66;5028086;28;20037;-76
2023/10/04 06:44:47;;;;;;;13.07;3.47;;;;;;;10.53;100.00;102554.16;5028767;28;20033;-75
2023/10/04 06:47:14;;;;;;;14.80;3.50;;;;;;;10.57;100.00;102553.06;5029658;28;20033;-75
2023/10/04 06:49:40;;;;;;;8.00;3.55;;;;;;;10.61;100.00;102556.56;5030082;28;20037;-74
2023/10/04 06:52:07;;;;;;;14.82;3.58;;;;;;;10.66;100.00;102565.38;5028892;28;20481;-75
2023/10/04 06:54:33;;;;;;;15.32;3.55;;;;;;;10.68;100.00;102569.81;5028665;28;20032;-75
2023/10/04 06:56:59;;;;;;;9.10;3.47;;;;;;;10.73;100.00;102565.06;5027633;28;20026;-75
2023/10/04 06:59:24;;;;;;;11.57;3.50;;;;;;;10.79;100.00;102565.72;5029411;28;20049;-75
2023/10/04 07:01:51;;;;;;;9.65;3.90;;;;;;;10.84;100.00;102563.69;5027390;28;20502;-74
2023/10/04 07:04:16;;;;;;;10.35;3.45;;;;;;;10.92;100.00;102556.94;5030133;28;20481;-74
2023/10/04 07:06:42;;;;;;;11.73;3.63;;;;;;;11.01;100.00;102549.28;5030050;28;20128;-75
2023/10/04 07:09:07;;;;;;;11.05;3.00;;;;;;;11.21;100.00;102566.44;5028526;28;20033;-77
2023/10/04 07:11:33;;;;;;;10.52;3.58;;;;;;;11.39;100.00;102558.34;5027221;28;20049;-75
2023/10/04 07:13:58;;;;;;;11.57;3.08;;;;;;;11.52;100.00;102558.59;5029490;28;20029;-74
2023/10/04 07:16:24;;;;;;;12.80;3.47;;;;;;;11.58;100.00;102556.50;5030625;28;20037;-75
2023/10/04 07:18:50;;;;;;;10.55;3.35;;;;;;;11.75;100.00;102561.13;5028122;28;20071;-72
2023/10/04 07:21:16;;;;;;;14.65;3.72;;;;;;;12.02;100.00;102558.84;5030555;28;20215;-73
2023/10/04 07:23:41;;;;;;;11.68;3.45;;;;;;;12.29;100.00;102558.41;5027893;28;20649;-75
2023/10/04 07:26:09;;;;;;;14.13;3.47;;;;;;;12.52;100.00;102566.25;5029274;28;20761;-76
2023/10/04 07:28:37;;;;;;;11.10;3.33;;;;;;;12.51;100.00;102561.75;5010972;28;20087;-76
2023/10/04 07:31:03;;;;;;;11.30;3.63;;;;;;;12.43;100.00;102564.88;5031415;28;20040;-74
2023/10/04 07:33:28;;;;;;;13.02;3.85;;;;;;;12.40;100.00;102569.63;5027019;28;20398;-76
2023/10/04 07:35:55;;;;;;;11.85;3.58;;;;;;;12.36;100.00;102574.38;5027840;28;20044;-77
2023/10/04 07:38:21;;;;;;;13.27;3.42;;;;;;;12.33;100.00;102568.19;5028880;28;20041;-76
2023/10/04 07:40:46;;;;;;;8.32;2.95;;;;;;;12.36;100.00;102571.66;5031485;28;20031;-77
2023/10/04 07:43:13;;;;;;;13.80;3.67;;;;;;;12.36;100.00;102574.38;5049475;28;20032;-79
2023/10/04 07:45:39;;;;;;;17.02;4.13;;;;;;;12.40;100.00;102578.72;5036266;28;20044;-75
2023/10/04 07:48:06;;;;;;;18.85;3.78;;;;;;;12.45;100.00;102582.09;5028606;28;20037;-77
2023/10/04 07:50:33;;;;;;;15.68;3.30;;;;;;;12.53;100.00;102581.66;5028024;28;20037;-76
2023/10/04 07:53:06;;;;;;;15.57;3.72;;;;;;;12.56;100.00;102592.44;5028330;28;20053;-76
2023/10/04 07:55:33;;;;;;;19.80;4.13;;;;;;;12.58;100.00;102595.06;5028774;28;20045;-75
2023/10/04 07:58:02;;;;;;;12.55;3.63;;;;;;;12.69;100.00;102587.22;5027902;28;20045;-74
2023/10/04 08:00:29;;;;;;;13.02;3.60;;;;;;;12.78;100.00;102589.44;5027294;28;20119;-77
2023/10/04 08:02:57;;;;;;;10.82;3.55;;;;;;;12.87;100.00;102597.16;5028283;28;20426;-77
2023/10/04 08:05:25;;;;;;;14.23;4.05;;;;;;;12.93;100.00;102598.66;5028905;28;20077;-75
2023/10/04 08:07:52;;;;;;;14.85;3.92;;;;;;;12.97;100.00;102597.53;5028334;28;20124;-76
2023/10/04 08:10:23;;;;;;;8.75;3.35;;;;;;;13.05;100.00;102592.50;5027423;28;20094;-77
2023/10/04 08:12:51;;;;;;;9.57;3.53;;;;;;;13.13;100.00;102597.56;5027819;28;20065;-76
2023/10/04 08:15:19;;;;;;;11.23;3.42;;;;;;;13.20;100.00;102599.88;5032711;28;20059;-77
2023/10/04 08:17:48;;;;;;;8.25;3.78;;;;;;;13.30;100.00;102597.56;5047230;28;20044;-76
2023/10/04 08:20:17;;;;;;;11.48;3.75;;;;;;;13.38;100.00;102606.22;5030872;28;20370;-79
2023/10/04 08:22:44;;;;;;;9.95;3.80;;;;;;;13.46;100.00;102603.03;5048673;28;20032;-78
2023/10/04 08:25:17;;;;;;;9.32;3.47;;;;;;;13.54;100.00;102608.94;5029831;28;20028;-78
2023/10/04 08:27:43;;;;;;;13.05;4.03;;;;;;;13.62;100.00;102619.47;5028275;28;20041;-76
2023/10/04 08:30:14;;;;;;;14.85;3.92;;;;;;;13.68;100.00;102616.38;5026836;28;20055;-76
2023/10/04 08:32:41;;;;;;;10.70;3.90;;;;;;;13.71;100.00;102614.34;5009831;28;20045;-77
2023/10/04 08:35:33;;;;;;;14.00;3.63;;;;;;;13.65;98.51;102609.22;5028651;28;20587;-76
2023/10/04 08:37:57;;;;;;;11.98;3.65;;;;;;;13.77;100.00;102621.31;5025668;28;20094;-77
2023/10/04 08:40:24;;;;;;;12.25;3.50;;;;;;;13.94;100.00;102617.59;5026817;28;20397;-76
2023/10/04 08:42:50;;;;;;;14.38;4.25;;;;;;;14.12;100.00;102618.38;5027265;28;20061;-78
2023/10/04 08:45:17;;;;;;;11.13;3.30;;;;;;;14.25;97.86;102616.66;5028403;28;20030;-76
2023/10/04 08:47:50;;;;;;;11.80;3.20;;;;;;;14.37;97.82;102626.03;5028243;28;20500;-76
2023/10/04 08:50:19;;;;;;;;;;;;;;;14.43;99.15;102623.78;5027954;28;20525;-76
2023/10/04 08:52:46;;;;;;;10.68;3.20;;;;;;;14.48;96.95;102620.81;5042557;28;20451;-77
2023/10/04 08:55:16;;;;;;;12.73;3.58;;;;;;;14.52;96.83;102616.91;5046272;28;20819;-74
2023/10/04 08:57:43;;;;;;;13.98;4.55;;;;;;;14.54;95.94;102615.81;5043044;28;20033;-77
2023/10/04 09:00:18;;;;;;;12.05;3.45;;;;;;;14.64;95.47;102623.47;5030243;28;20086;-75
2023/10/04 09:02:47;;;;;;;7.03;3.05;;;;;;;14.75;95.28;102626.47;5047288;28;20062;-77
2023/10/04 09:05:17;;;;;;;14.55;4.22;;;;;;;14.80;95.26;102622.44;5047649;28;20044;-76
2023/10/04 09:07:43;;;;;;;15.30;3.05;;;;;;;14.86;94.37;102634.00;5026529;28;20069;-78
2023/10/04 09:10:15;;;;;;;18.73;3.47;;;;;;;14.92;94.41;102641.84;5045909;28;20043;-76
2023/10/04 09:12:47;;;;;;;12.27;3.22;;;;;;;14.98;94.02;102628.66;5037075;28;20508;-77
2023/10/04 09:15:13;;;;;;;9.95;2.80;;;;;;;15.03;93.62;102631.97;5031204;28;20065;-76
2023/10/04 09:17:47;;;;;;;14.20;3.53;;;;;;;15.17;94.00;102628.38;5028970;28;20038;-77
2023/10/04 09:20:16;;;;;;;9.80;3.40;;;;;;;15.24;93.43;102626.97;5031978;28;20136;-77
2023/10/04 09:22:41;;;;;;;12.02;3.20;;;;;;;15.30;93.42;102621.13;5030323;28;20441;-75
2023/10/04 09:25:07;;;;;;;7.32;2.85;;;;;;;15.36;93.13;102622.59;5030865;28;20041;-78
2023/10/04 09:27:32;;;;;;;12.73;3.17;;;;;;;15.46;92.68;102615.53;5030195;28;20029;-74
2023/10/04 09:29:59;;;;;;;10.15;3.10;;;;;;;15.58;91.19;102608.38;5045073;28;20026;-74
2023/10/04 09:32:36;;;;;;;10.68;4.22;;;;;;;15.69;91.48;102613.19;5028689;28;20039;-75
2023/10/04 09:35:01;;;;;;;11.30;3.53;;;;;;;15.69;90.36;102608.56;5030963;28;20061;-77
2023/10/04 09:37:26;;;;;;;13.40;3.30;;;;;;;15.75;90.37;102615.50;5013194;28;20491;-76
2023/10/04 09:40:12;;;;;;;12.07;3.13;;;;;;;15.85;90.61;102618.53;5030655;28;20045;-76
2023/10/04 09:42:51;;;;;;;12.18;4.15;;;;;;;15.89;88.49;102625.56;5030088;28;20767;-76
2023/10/04 09:45:21;;;;;;;12.43;3.13;;;;;;;15.89;88.61;102620.09;5031453;28;20029;-71
2023/10/04 09:47:49;;;;;;;11.07;3.58;;;;;;;15.95;88.05;102622.44;5030756;28;20481;-78
2023/10/04 09:50:26;;;;;;;13.32;3.80;;;;;;;15.95;88.69;102619.69;5029968;28;20490;-77
2023/10/04 09:52:53;;;;;;;12.57;3.90;;;;;;;15.99;87.96;102615.75;5030026;28;20043;-75
2023/10/04 09:55:22;;;;;;;8.45;3.30;;;;;;;16.07;87.81;102616.13;5043335;28;20032;-76
2023/10/04 09:57:48;;;;;;;11.50;3.10;;;;;;;16.15;88.66;102619.22;5050034;28;20041;-77
2023/10/04 10:00:17;;;;;;;11.35;3.25;;;;;;;16.24;88.49;102615.88;5043580;28;20466;-75
2023/10/04 10:02:50;;;;;;;11.88;3.40;;;;;;;16.33;89.49;102617.09;5030293;28;20033;-75
2023/10/04 10:05:24;;;;;;;;;;;;;;;16.45;90.21;102618.97;5030079;28;20033;-76
2023/10/04 10:07:52;;;;;;;8.55;3.53;;;;;;;16.43;87.51;102625.59;5028848;28;19975;-75
2023/10/04 10:10:20;;;;;;;10.52;3.33;;;;;;;16.49;87.71;102630.66;5030295;28;20034;-71
2023/10/04 10:12:49;;;;;;;10.48;3.33;;;;;;;16.45;85.95;102635.47;5029004;28;20508;-78
2023/10/04 10:15:15;;;;;;;11.02;3.25;;;;;;;16.44;86.72;102630.97;5015489;28;20087;-76
2023/10/04 10:17:42;;;;;;;7.93;3.03;;;;;;;16.39;87.01;102637.78;5029302;28;20041;-74
2023/10/04 10:20:11;;;;;;;8.35;3.50;;;;;;;16.44;85.75;102627.34;5029957;28;20552;-76
2023/10/04 10:22:58;;;;;;;10.45;3.15;;;;;;;16.58;86.06;102624.53;5030006;28;20484;-76
2023/10/04 10:25:25;;;;;;;10.48;3.08;;;;;;;16.68;85.86;102628.38;5029677;28;20064;-76
2023/10/04 10:28:21;;;;;;;13.18;3.42;;;;;;;16.71;86.60;102622.69;5028300;28;20469;-76
2023/10/04 10:30:47;;;;;;;12.45;3.13;;;;;;;16.69;83.03;102621.88;5031853;28;20127;-72
2023/10/04 10:33:12;;;;;;;12.85;3.40;;;;;;;16.66;84.88;102613.00;5029696;28;20493;-77
2023/10/04 10:35:56;;;;;;;10.63;3.53;;;;;;;16.63;83.57;102621.44;5028901;28;20047;-77
2023/10/04 10:38:39;;;;;;;10.70;3.38;;;;;;;16.63;83.65;102616.84;5029295;28;20030;-76
2023/10/04 10:41:11;;;;;;;14.70;3.40;;;;;;;16.76;84.41;102616.91;5028372;28;20045;-74
2023/10/04 10:44:17;;;;;;;9.55;3.40;;;;;;;17.03;84.65;102608.56;5029165;28;20040;-76
2023/10/04 10:46:56;;;;;;;8.75;3.25;;;;;;;17.29;82.74;102614.91;5029502;28;20520;-77
2023/10/04 10:49:36;;;;;;;13.18;3.42;;;;;;;17.38;81.05;102607.88;5029873;28;20029;-74
2023/10/04 10:52:02;;;;;;;10.63;3.15;;;;;;;17.45;81.45;102621.06;5029774;28;20048;-76
2023/10/04 10:54:28;;;;;;;12.45;3.65;;;;;;;17.50;78.57;102612.47;5031424;28;20029;-73
2023/10/04 10:56:53;;;;;;;9.07;3.10;;;;;;;17.47;78.06;102620.94;5048892;28;20041;-76
2023/10/04 10:59:18;;;;;;;14.80;3.50;;;;;;;17.54;79.24;102611.28;5043318;28;20033;-76
2023/10/04 11:01:43;;;;;;;11.80;3.58;;;;;;;17.65;78.59;102607.72;5029014;28;20037;-74
2023/10/04 11:04:09;;;;;;;14.88;3.42;;;;;;;17.81;79.65;102602.84;5027713;28;20037;-77
2023/10/04 11:06:35;;;;;;;10.35;2.78;;;;;;;17.95;77.24;102601.78;5028980;28;20052;-77
2023/10/04 11:09:01;;;;;;;10.65;3.40;;;;;;;18.02;76.86;102592.97;5029129;28;20022;-74
2023/10/04 11:11:27;;;;;;;9.07;3.47;;;;;;;17.99;75.52;102590.44;5028514;28;20079;-75
2023/10/04 11:13:53;;;;;;;10.68;3.30;;;;;;;18.03;75.24;102588.34;5028979;28;20033;-74
2023/10/04 11:16:21;;;;;;;12.93;3.58;;;;;;;18.10;77.65;102581.38;5033847;28;20476;-74
2023/10/04 11:18:47;;;;;;;10.50;3.15;;;;;;;18.20;75.13;102581.53;5029673;28;20129;-71
2023/10/04 11:21:14;;;;;;;14.60;3.70;;;;;;;18.20;74.88;102576.91;5029546;28;20481;-79
2023/10/04 11:23:39;;;;;;;9.93;3.33;;;;;;;18.25;75.74;102579.31;5028615;28;20037;-77
2023/10/04 11:26:08;;;;;;;12.00;3.38;;;;;;;18.34;76.07;102589.63;5027221;28;20052;-74